sensor_id;sensor_type;location;lat;lon;timestamp;P1;durP1;ratioP1;P2;durP2;ratioP2
65831;SDS011;52593;42.648;23.332;2023-08-24T00:00:29;18.87;;;9.80;;
65831;SDS011;52593;42.648;23.332;2023-08-24T00:02:57;15.57;;;9.40;;
65831;SDS011;52593;42.648;23.332;2023-08-24T00:05:22;16.67;;;9.93;;
65831;SDS011;52593;42.648;23.332;2023-08-24T00:07:48;15.43;;;9.50;;
65831;SDS011;52593;42.648;23.332;2023-08-24T00:10:14;18.92;;;10.10;;
65831;SDS011;52593;42.648;23.332;2023-08-24T00:12:39;15.67;;;10.20;;
65831;SDS011;52593;42.648;23.332;2023-08-24T00:15:07;18.83;;;10.50;;
65831;SDS011;52593;42.648;23.332;2023-08-24T00:17:34;14.65;;;9.40;;
65831;SDS011;52593;42.648;23.332;2023-08-24T00:19:59;16.20;;;9.90;;
65831;SDS011;52593;42.648;23.332;2023-08-24T00:22:26;19.42;;;9.23;;
65831;SDS011;52593;42.648;23.332;2023-08-24T00:24:51;15.47;;;9.40;;
65831;SDS011;52593;42.648;23.332;2023-08-24T00:27:16;17.07;;;9.93;;
65831;SDS011;52593;42.648;23.332;2023-08-24T00:29:42;17.37;;;9.57;;
65831;SDS011;52593;42.648;23.332;2023-08-24T00:32:07;16.40;;;9.00;;
65831;SDS011;52593;42.648;23.332;2023-08-24T00:34:33;14.82;;;9.15;;
65831;SDS011;52593;42.648;23.332;2023-08-24T00:36:58;18.57;;;10.40;;
65831;SDS011;52593;42.648;23.332;2023-08-24T00:39:24;17.83;;;9.60;;
65831;SDS011;52593;42.648;23.332;2023-08-24T00:41:49;14.50;;;9.30;;
65831;SDS011;52593;42.648;23.332;2023-08-24T00:44:14;16.45;;;9.95;;
65831;SDS011;52593;42.648;23.332;2023-08-24T00:46:40;14.67;;;9.63;;
65831;SDS011;52593;42.648;23.332;2023-08-24T00:49:06;13.95;;;8.57;;
65831;SDS011;52593;42.648;23.332;2023-08-24T00:51:32;13.17;;;9.07;;
65831;SDS011;52593;42.648;23.332;2023-08-24T00:53:57;14.57;;;9.30;;
65831;SDS011;52593;42.648;23.332;2023-08-24T00:56:23;17.27;;;9.20;;
65831;SDS011;52593;42.648;23.332;2023-08-24T00:58:49;16.67;;;9.38;;
65831;SDS011;52593;42.648;23.332;2023-08-24T01:01:17;17.00;;;10.07;;
65831;SDS011;52593;42.648;23.332;2023-08-24T01:03:44;19.07;;;9.40;;
65831;SDS011;52593;42.648;23.332;2023-08-24T01:06:09;15.70;;;9.35;;
65831;SDS011;52593;42.648;23.332;2023-08-24T01:08:35;16.37;;;9.53;;
65831;SDS011;52593;42.648;23.332;2023-08-24T01:16:25;17.25;;;9.48;;
65831;SDS011;52593;42.648;23.332;2023-08-24T01:18:54;16.13;;;9.50;;
65831;SDS011;52593;42.648;23.332;2023-08-24T01:21:22;15.63;;;9.38;;
65831;SDS011;52593;42.648;23.332;2023-08-24T01:24:04;15.52;;;9.27;;
65831;SDS011;52593;42.648;23.332;2023-08-24T01:26:37;16.37;;;9.40;;
65831;SDS011;52593;42.648;23.332;2023-08-24T01:29:04;19.42;;;9.98;;
65831;SDS011;52593;42.648;23.332;2023-08-24T01:31:29;15.85;;;9.52;;
65831;SDS011;52593;42.648;23.332;2023-08-24T01:33:55;17.10;;;9.63;;
65831;SDS011;52593;42.648;23.332;2023-08-24T01:36:20;15.30;;;9.37;;
65831;SDS011;52593;42.648;23.332;2023-08-24T01:38:53;17.02;;;9.88;;
65831;SDS011;52593;42.648;23.332;2023-08-24T01:41:31;15.90;;;9.65;;
65831;SDS011;52593;42.648;23.332;2023-08-24T01:44:02;17.23;;;9.85;;
65831;SDS011;52593;42.648;23.332;2023-08-24T01:46:29;17.17;;;9.85;;
65831;SDS011;52593;42.648;23.332;2023-08-24T01:48:56;17.77;;;10.40;;
65831;SDS011;52593;42.648;23.332;2023-08-24T01:51:21;16.70;;;9.68;;
65831;SDS011;52593;42.648;23.332;2023-08-24T01:53:49;16.13;;;9.55;;
65831;SDS011;52593;42.648;23.332;2023-08-24T01:56:16;14.47;;;9.67;;
65831;SDS011;52593;42.648;23.332;2023-08-24T01:58:42;16.92;;;9.93;;
65831;SDS011;52593;42.648;23.332;2023-08-24T02:01:07;16.23;;;10.10;;
65831;SDS011;52593;42.648;23.332;2023-08-24T02:03:33;16.50;;;9.32;;
65831;SDS011;52593;42.648;23.332;2023-08-24T02:05:59;14.90;;;9.65;;
65831;SDS011;52593;42.648;23.332;2023-08-24T02:08:24;16.17;;;9.33;;
65831;SDS011;52593;42.648;23.332;2023-08-24T02:10:50;17.63;;;10.00;;
65831;SDS011;52593;42.648;23.332;2023-08-24T02:13:15;15.63;;;10.10;;
65831;SDS011;52593;42.648;23.332;2023-08-24T02:15:41;17.20;;;9.83;;
65831;SDS011;52593;42.648;23.332;2023-08-24T02:18:06;17.40;;;9.70;;
65831;SDS011;52593;42.648;23.332;2023-08-24T02:20:38;19.83;;;9.85;;
65831;SDS011;52593;42.648;23.332;2023-08-24T02:23:04;17.65;;;9.98;;
65831;SDS011;52593;42.648;23.332;2023-08-24T02:25:48;15.53;;;9.80;;
65831;SDS011;52593;42.648;23.332;2023-08-24T02:28:13;16.63;;;10.20;;
65831;SDS011;52593;42.648;23.332;2023-08-24T02:30:39;17.30;;;10.23;;
65831;SDS011;52593;42.648;23.332;2023-08-24T02:33:04;17.50;;;10.53;;
65831;SDS011;52593;42.648;23.332;2023-08-24T02:35:30;18.77;;;11.13;;
65831;SDS011;52593;42.648;23.332;2023-08-24T02:37:56;16.60;;;10.37;;
65831;SDS011;52593;42.648;23.332;2023-08-24T02:40:22;18.23;;;10.55;;
65831;SDS011;52593;42.648;23.332;2023-08-24T02:42:47;19.33;;;10.53;;
65831;SDS011;52593;42.648;23.332;2023-08-24T02:45:13;17.92;;;10.15;;
65831;SDS011;52593;42.648;23.332;2023-08-24T02:47:38;20.03;;;10.00;;
65831;SDS011;52593;42.648;23.332;2023-08-24T02:50:04;18.73;;;10.57;;
65831;SDS011;52593;42.648;23.332;2023-08-24T02:52:31;20.23;;;10.20;;
65831;SDS011;52593;42.648;23.332;2023-08-24T02:54:57;20.50;;;10.98;;
65831;SDS011;52593;42.648;23.332;2023-08-24T02:57:23;18.17;;;10.73;;
65831;SDS011;52593;42.648;23.332;2023-08-24T02:59:48;19.00;;;10.57;;
65831;SDS011;52593;42.648;23.332;2023-08-24T03:02:14;18.83;;;10.35;;
65831;SDS011;52593;42.648;23.332;2023-08-24T03:04:39;17.63;;;10.30;;
65831;SDS011;52593;42.648;23.332;2023-08-24T03:07:05;17.40;;;10.30;;
65831;SDS011;52593;42.648;23.332;2023-08-24T03:09:33;20.60;;;10.80;;
65831;SDS011;52593;42.648;23.332;2023-08-24T03:12:01;16.27;;;9.95;;
65831;SDS011;52593;42.648;23.332;2023-08-24T03:14:27;19.50;;;10.35;;
65831;SDS011;52593;42.648;23.332;2023-08-24T03:16:53;21.97;;;10.57;;
65831;SDS011;52593;42.648;23.332;2023-08-24T03:19:18;18.83;;;10.90;;
65831;SDS011;52593;42.648;23.332;2023-08-24T03:21:44;19.40;;;10.50;;
65831;SDS011;52593;42.648;23.332;2023-08-24T03:24:09;18.80;;;10.63;;
65831;SDS011;52593;42.648;23.332;2023-08-24T03:26:36;19.48;;;10.48;;
65831;SDS011;52593;42.648;23.332;2023-08-24T03:29:01;19.87;;;11.20;;
65831;SDS011;52593;42.648;23.332;2023-08-24T03:31:26;19.50;;;11.37;;
65831;SDS011;52593;42.648;23.332;2023-08-24T03:33:52;20.83;;;11.82;;
65831;SDS011;52593;42.648;23.332;2023-08-24T03:36:17;19.13;;;10.87;;
65831;SDS011;52593;42.648;23.332;2023-08-24T03:38:43;18.33;;;11.10;;
65831;SDS011;52593;42.648;23.332;2023-08-24T03:41:10;21.05;;;11.65;;
65831;SDS011;52593;42.648;23.332;2023-08-24T03:43:35;21.17;;;11.60;;
65831;SDS011;52593;42.648;23.332;2023-08-24T03:46:02;19.70;;;11.35;;
65831;SDS011;52593;42.648;23.332;2023-08-24T03:48:29;21.58;;;11.27;;
65831;SDS011;52593;42.648;23.332;2023-08-24T03:50:55;18.63;;;11.10;;
65831;SDS011;52593;42.648;23.332;2023-08-24T03:53:21;19.70;;;11.32;;
65831;SDS011;52593;42.648;23.332;2023-08-24T03:55:48;22.05;;;11.20;;
65831;SDS011;52593;42.648;23.332;2023-08-24T03:58:14;17.20;;;10.45;;
65831;SDS011;52593;42.648;23.332;2023-08-24T04:00:39;18.60;;;11.90;;
65831;SDS011;52593;42.648;23.332;2023-08-24T04:03:06;20.88;;;11.50;;
65831;SDS011;52593;42.648;23.332;2023-08-24T04:05:32;23.03;;;10.67;;
65831;SDS011;52593;42.648;23.332;2023-08-24T04:08:00;20.58;;;11.93;;
65831;SDS011;52593;42.648;23.332;2023-08-24T04:10:26;19.38;;;10.85;;
65831;SDS011;52593;42.648;23.332;2023-08-24T04:12:52;21.67;;;11.23;;
65831;SDS011;52593;42.648;23.332;2023-08-24T04:15:18;22.27;;;12.05;;
65831;SDS011;52593;42.648;23.332;2023-08-24T04:17:43;22.63;;;11.47;;
65831;SDS011;52593;42.648;23.332;2023-08-24T04:20:09;22.33;;;11.73;;
65831;SDS011;52593;42.648;23.332;2023-08-24T04:22:35;20.23;;;11.50;;
65831;SDS011;52593;42.648;23.332;2023-08-24T04:25:00;20.80;;;11.68;;
65831;SDS011;52593;42.648;23.332;2023-08-24T04:27:26;24.57;;;12.73;;
65831;SDS011;52593;42.648;23.332;2023-08-24T04:29:51;19.13;;;11.38;;
65831;SDS011;52593;42.648;23.332;2023-08-24T04:32:17;22.30;;;12.37;;
65831;SDS011;52593;42.648;23.332;2023-08-24T04:34:42;22.03;;;11.97;;
65831;SDS011;52593;42.648;23.332;2023-08-24T04:37:08;23.00;;;10.93;;
65831;SDS011;52593;42.648;23.332;2023-08-24T04:39:33;20.63;;;11.90;;
65831;SDS011;52593;42.648;23.332;2023-08-24T04:41:59;20.27;;;12.63;;
65831;SDS011;52593;42.648;23.332;2023-08-24T04:44:24;31.53;;;15.83;;
65831;SDS011;52593;42.648;23.332;2023-08-24T04:46:50;26.63;;;12.40;;
65831;SDS011;52593;42.648;23.332;2023-08-24T04:49:15;29.03;;;13.47;;
65831;SDS011;52593;42.648;23.332;2023-08-24T04:51:41;21.67;;;12.60;;
65831;SDS011;52593;42.648;23.332;2023-08-24T04:54:06;28.38;;;12.30;;
65831;SDS011;52593;42.648;23.332;2023-08-24T04:56:31;27.17;;;12.50;;
65831;SDS011;52593;42.648;23.332;2023-08-24T04:58:57;22.58;;;12.30;;
65831;SDS011;52593;42.648;23.332;2023-08-24T05:01:25;22.80;;;12.20;;
65831;SDS011;52593;42.648;23.332;2023-08-24T05:03:51;24.98;;;13.13;;
65831;SDS011;52593;42.648;23.332;2023-08-24T05:06:17;24.73;;;12.65;;
65831;SDS011;52593;42.648;23.332;2023-08-24T05:08:43;21.83;;;13.10;;
65831;SDS011;52593;42.648;23.332;2023-08-24T05:11:12;26.13;;;13.37;;
65831;SDS011;52593;42.648;23.332;2023-08-24T05:13:38;23.17;;;12.65;;
65831;SDS011;52593;42.648;23.332;2023-08-24T05:16:04;28.13;;;13.70;;
65831;SDS011;52593;42.648;23.332;2023-08-24T05:18:29;27.13;;;14.17;;
65831;SDS011;52593;42.648;23.332;2023-08-24T05:20:55;32.57;;;16.20;;
65831;SDS011;52593;42.648;23.332;2023-08-24T05:23:20;32.87;;;17.80;;
65831;SDS011;52593;42.648;23.332;2023-08-24T05:25:45;38.17;;;14.70;;
65831;SDS011;52593;42.648;23.332;2023-08-24T05:28:11;32.93;;;16.63;;
65831;SDS011;52593;42.648;23.332;2023-08-24T05:30:36;27.07;;;15.33;;
65831;SDS011;52593;42.648;23.332;2023-08-24T05:33:01;28.00;;;13.57;;
65831;SDS011;52593;42.648;23.332;2023-08-24T05:35:27;25.17;;;13.60;;
65831;SDS011;52593;42.648;23.332;2023-08-24T05:37:52;23.33;;;12.83;;
65831;SDS011;52593;42.648;23.332;2023-08-24T05:40:18;24.92;;;13.45;;
65831;SDS011;52593;42.648;23.332;2023-08-24T05:42:43;24.50;;;12.57;;
65831;SDS011;52593;42.648;23.332;2023-08-24T05:45:09;30.03;;;13.80;;
65831;SDS011;52593;42.648;23.332;2023-08-24T05:47:34;26.95;;;13.88;;
65831;SDS011;52593;42.648;23.332;2023-08-24T05:49:59;31.77;;;14.40;;
65831;SDS011;52593;42.648;23.332;2023-08-24T05:52:25;31.30;;;14.70;;
65831;SDS011;52593;42.648;23.332;2023-08-24T05:54:50;24.97;;;13.80;;
65831;SDS011;52593;42.648;23.332;2023-08-24T05:57:16;31.30;;;14.47;;
65831;SDS011;52593;42.648;23.332;2023-08-24T05:59:41;28.23;;;14.80;;
65831;SDS011;52593;42.648;23.332;2023-08-24T06:02:06;29.00;;;14.37;;
65831;SDS011;52593;42.648;23.332;2023-08-24T06:04:32;28.57;;;15.60;;
65831;SDS011;52593;42.648;23.332;2023-08-24T06:06:57;33.83;;;15.67;;
65831;SDS011;52593;42.648;23.332;2023-08-24T06:09:22;26.17;;;14.17;;
65831;SDS011;52593;42.648;23.332;2023-08-24T06:11:48;30.52;;;13.98;;
65831;SDS011;52593;42.648;23.332;2023-08-24T06:14:13;25.93;;;14.43;;
65831;SDS011;52593;42.648;23.332;2023-08-24T06:16:38;27.43;;;13.77;;
65831;SDS011;52593;42.648;23.332;2023-08-24T06:19:04;27.90;;;15.00;;
65831;SDS011;52593;42.648;23.332;2023-08-24T06:21:29;25.93;;;15.73;;
65831;SDS011;52593;42.648;23.332;2023-08-24T06:23:55;25.07;;;15.23;;
65831;SDS011;52593;42.648;23.332;2023-08-24T06:26:20;26.80;;;15.23;;
65831;SDS011;52593;42.648;23.332;2023-08-24T06:28:45;29.73;;;16.10;;
65831;SDS011;52593;42.648;23.332;2023-08-24T06:31:11;28.30;;;15.87;;
65831;SDS011;52593;42.648;23.332;2023-08-24T06:33:38;33.10;;;15.73;;
65831;SDS011;52593;42.648;23.332;2023-08-24T06:36:04;33.37;;;15.93;;
65831;SDS011;52593;42.648;23.332;2023-08-24T06:38:30;31.92;;;16.08;;
65831;SDS011;52593;42.648;23.332;2023-08-24T06:40:57;26.02;;;16.30;;
65831;SDS011;52593;42.648;23.332;2023-08-24T06:43:22;29.80;;;15.57;;
65831;SDS011;52593;42.648;23.332;2023-08-24T06:45:47;26.07;;;15.10;;
65831;SDS011;52593;42.648;23.332;2023-08-24T06:48:13;27.70;;;14.33;;
65831;SDS011;52593;42.648;23.332;2023-08-24T06:50:38;26.50;;;15.53;;
65831;SDS011;52593;42.648;23.332;2023-08-24T06:53:04;30.23;;;15.80;;
65831;SDS011;52593;42.648;23.332;2023-08-24T06:55:29;27.50;;;14.38;;
65831;SDS011;52593;42.648;23.332;2023-08-24T06:57:55;23.13;;;14.10;;
65831;SDS011;52593;42.648;23.332;2023-08-24T07:00:20;25.58;;;13.40;;
65831;SDS011;52593;42.648;23.332;2023-08-24T07:02:46;27.13;;;14.13;;
65831;SDS011;52593;42.648;23.332;2023-08-24T07:05:13;26.83;;;13.70;;
65831;SDS011;52593;42.648;23.332;2023-08-24T07:07:39;25.33;;;13.32;;
65831;SDS011;52593;42.648;23.332;2023-08-24T07:10:08;22.90;;;12.60;;
65831;SDS011;52593;42.648;23.332;2023-08-24T07:12:34;25.42;;;14.02;;
65831;SDS011;52593;42.648;23.332;2023-08-24T07:14:59;26.80;;;13.90;;
65831;SDS011;52593;42.648;23.332;2023-08-24T07:17:24;24.57;;;13.47;;
65831;SDS011;52593;42.648;23.332;2023-08-24T07:19:50;27.95;;;12.98;;
65831;SDS011;52593;42.648;23.332;2023-08-24T07:22:15;25.20;;;13.27;;
65831;SDS011;52593;42.648;23.332;2023-08-24T07:24:40;23.50;;;11.87;;
65831;SDS011;52593;42.648;23.332;2023-08-24T07:27:06;36.60;;;13.27;;
65831;SDS011;52593;42.648;23.332;2023-08-24T07:29:33;31.57;;;12.60;;
65831;SDS011;52593;42.648;23.332;2023-08-24T07:31:59;24.45;;;12.32;;
65831;SDS011;52593;42.648;23.332;2023-08-24T07:34:24;24.73;;;12.70;;
65831;SDS011;52593;42.648;23.332;2023-08-24T07:36:49;22.60;;;12.30;;
65831;SDS011;52593;42.648;23.332;2023-08-24T07:39:15;23.50;;;12.90;;
65831;SDS011;52593;42.648;23.332;2023-08-24T07:41:41;27.63;;;16.63;;
65831;SDS011;52593;42.648;23.332;2023-08-24T07:44:07;20.10;;;12.45;;
65831;SDS011;52593;42.648;23.332;2023-08-24T07:46:33;20.73;;;12.30;;
65831;SDS011;52593;42.648;23.332;2023-08-24T07:48:58;20.77;;;12.37;;
65831;SDS011;52593;42.648;23.332;2023-08-24T07:51:23;24.67;;;12.93;;
65831;SDS011;52593;42.648;23.332;2023-08-24T07:53:49;22.90;;;12.07;;
65831;SDS011;52593;42.648;23.332;2023-08-24T07:56:17;22.38;;;12.43;;
65831;SDS011;52593;42.648;23.332;2023-08-24T07:58:42;24.27;;;13.40;;
65831;SDS011;52593;42.648;23.332;2023-08-24T08:01:08;20.33;;;13.60;;
65831;SDS011;52593;42.648;23.332;2023-08-24T08:03:34;25.57;;;12.97;;
65831;SDS011;52593;42.648;23.332;2023-08-24T08:06:00;22.10;;;13.25;;
65831;SDS011;52593;42.648;23.332;2023-08-24T08:08:26;20.30;;;12.10;;
65831;SDS011;52593;42.648;23.332;2023-08-24T08:10:58;20.73;;;11.80;;
65831;SDS011;52593;42.648;23.332;2023-08-24T08:13:25;21.27;;;11.82;;
65831;SDS011;52593;42.648;23.332;2023-08-24T08:15:51;18.13;;;11.73;;
65831;SDS011;52593;42.648;23.332;2023-08-24T08:18:16;17.80;;;11.15;;
65831;SDS011;52593;42.648;23.332;2023-08-24T08:20:42;25.80;;;11.90;;
65831;SDS011;52593;42.648;23.332;2023-08-24T08:23:07;19.00;;;11.70;;
65831;SDS011;52593;42.648;23.332;2023-08-24T08:25:32;19.47;;;11.63;;
65831;SDS011;52593;42.648;23.332;2023-08-24T08:27:58;17.40;;;11.70;;
65831;SDS011;52593;42.648;23.332;2023-08-24T08:30:23;18.20;;;11.35;;
65831;SDS011;52593;42.648;23.332;2023-08-24T08:32:48;20.00;;;10.50;;
65831;SDS011;52593;42.648;23.332;2023-08-24T08:35:16;19.40;;;11.43;;
65831;SDS011;52593;42.648;23.332;2023-08-24T08:37:42;20.77;;;11.82;;
65831;SDS011;52593;42.648;23.332;2023-08-24T08:40:09;20.63;;;12.77;;
65831;SDS011;52593;42.648;23.332;2023-08-24T08:42:35;20.60;;;10.63;;
65831;SDS011;52593;42.648;23.332;2023-08-24T08:45:02;20.73;;;11.32;;
65831;SDS011;52593;42.648;23.332;2023-08-24T08:47:33;17.20;;;11.60;;
65831;SDS011;52593;42.648;23.332;2023-08-24T08:49:58;18.00;;;11.35;;
65831;SDS011;52593;42.648;23.332;2023-08-24T08:52:26;17.90;;;10.98;;
65831;SDS011;52593;42.648;23.332;2023-08-24T08:54:51;23.87;;;11.97;;
65831;SDS011;52593;42.648;23.332;2023-08-24T08:57:17;18.67;;;11.55;;
65831;SDS011;52593;42.648;23.332;2023-08-24T08:59:44;15.80;;;10.27;;
65831;SDS011;52593;42.648;23.332;2023-08-24T09:02:11;18.40;;;11.02;;
65831;SDS011;52593;42.648;23.332;2023-08-24T09:04:40;17.42;;;10.50;;
65831;SDS011;52593;42.648;23.332;2023-08-24T09:07:09;17.58;;;10.55;;
65831;SDS011;52593;42.648;23.332;2023-08-24T09:09:37;14.80;;;10.63;;
65831;SDS011;52593;42.648;23.332;2023-08-24T09:12:04;19.30;;;11.05;;
65831;SDS011;52593;42.648;23.332;2023-08-24T09:14:30;20.13;;;11.98;;
65831;SDS011;52593;42.648;23.332;2023-08-24T09:16:56;15.83;;;11.27;;
65831;SDS011;52593;42.648;23.332;2023-08-24T09:19:27;17.73;;;11.07;;
65831;SDS011;52593;42.648;23.332;2023-08-24T09:21:56;14.85;;;10.93;;
65831;SDS011;52593;42.648;23.332;2023-08-24T09:24:32;18.52;;;11.82;;
65831;SDS011;52593;42.648;23.332;2023-08-24T09:26:59;17.98;;;11.38;;
65831;SDS011;52593;42.648;23.332;2023-08-24T09:29:25;17.13;;;11.00;;
65831;SDS011;52593;42.648;23.332;2023-08-24T09:31:51;17.27;;;11.27;;
65831;SDS011;52593;42.648;23.332;2023-08-24T09:34:20;20.40;;;11.23;;
65831;SDS011;52593;42.648;23.332;2023-08-24T09:36:46;18.80;;;11.98;;
65831;SDS011;52593;42.648;23.332;2023-08-24T09:39:11;16.17;;;11.57;;
65831;SDS011;52593;42.648;23.332;2023-08-24T09:41:44;20.40;;;11.80;;
65831;SDS011;52593;42.648;23.332;2023-08-24T09:44:16;15.13;;;11.48;;
65831;SDS011;52593;42.648;23.332;2023-08-24T09:46:42;19.63;;;13.93;;
65831;SDS011;52593;42.648;23.332;2023-08-24T09:49:09;17.33;;;12.18;;
65831;SDS011;52593;42.648;23.332;2023-08-24T09:51:37;17.80;;;11.38;;
65831;SDS011;52593;42.648;23.332;2023-08-24T09:54:06;15.00;;;11.13;;
65831;SDS011;52593;42.648;23.332;2023-08-24T09:56:36;15.85;;;11.20;;
65831;SDS011;52593;42.648;23.332;2023-08-24T09:59:07;16.88;;;11.75;;
65831;SDS011;52593;42.648;23.332;2023-08-24T10:01:50;14.82;;;11.32;;
65831;SDS011;52593;42.648;23.332;2023-08-24T10:04:22;15.38;;;11.40;;
65831;SDS011;52593;42.648;23.332;2023-08-24T10:06:59;18.67;;;11.57;;
65831;SDS011;52593;42.648;23.332;2023-08-24T10:09:41;17.63;;;10.80;;
65831;SDS011;52593;42.648;23.332;2023-08-24T10:12:10;16.83;;;11.00;;
65831;SDS011;52593;42.648;23.332;2023-08-24T10:14:44;16.70;;;10.60;;
65831;SDS011;52593;42.648;23.332;2023-08-24T10:17:18;15.50;;;10.45;;
65831;SDS011;52593;42.648;23.332;2023-08-24T10:19:44;17.23;;;10.60;;
65831;SDS011;52593;42.648;23.332;2023-08-24T10:22:11;15.25;;;11.43;;
65831;SDS011;52593;42.648;23.332;2023-08-24T10:24:37;17.05;;;11.68;;
65831;SDS011;52593;42.648;23.332;2023-08-24T10:27:03;14.85;;;11.02;;
65831;SDS011;52593;42.648;23.332;2023-08-24T10:29:30;16.10;;;10.98;;
65831;SDS011;52593;42.648;23.332;2023-08-24T10:31:55;16.20;;;11.33;;
65831;SDS011;52593;42.648;23.332;2023-08-24T10:34:22;15.70;;;10.93;;
65831;SDS011;52593;42.648;23.332;2023-08-24T10:36:48;16.48;;;11.57;;
65831;SDS011;52593;42.648;23.332;2023-08-24T10:39:14;15.27;;;10.50;;
65831;SDS011;52593;42.648;23.332;2023-08-24T10:41:49;16.90;;;11.50;;
65831;SDS011;52593;42.648;23.332;2023-08-24T10:44:19;15.38;;;10.45;;
65831;SDS011;52593;42.648;23.332;2023-08-24T10:47:05;15.55;;;10.55;;
65831;SDS011;52593;42.648;23.332;2023-08-24T10:49:37;17.27;;;12.32;;
65831;SDS011;52593;42.648;23.332;2023-08-24T10:52:19;14.53;;;10.50;;
65831;SDS011;52593;42.648;23.332;2023-08-24T10:54:49;15.05;;;9.85;;
65831;SDS011;52593;42.648;23.332;2023-08-24T10:57:20;13.98;;;9.73;;
65831;SDS011;52593;42.648;23.332;2023-08-24T11:02:52;17.40;;;13.82;;
65831;SDS011;52593;42.648;23.332;2023-08-24T11:07:57;15.07;;;10.32;;
65831;SDS011;52593;42.648;23.332;2023-08-24T11:10:25;16.98;;;10.98;;
65831;SDS011;52593;42.648;23.332;2023-08-24T11:15:29;18.27;;;10.23;;
65831;SDS011;52593;42.648;23.332;2023-08-24T11:20:42;15.05;;;10.70;;
65831;SDS011;52593;42.648;23.332;2023-08-24T11:23:09;18.20;;;11.07;;
65831;SDS011;52593;42.648;23.332;2023-08-24T11:25:37;18.05;;;10.88;;
65831;SDS011;52593;42.648;23.332;2023-08-24T11:28:04;14.65;;;10.07;;
65831;SDS011;52593;42.648;23.332;2023-08-24T11:30:30;20.70;;;11.83;;
65831;SDS011;52593;42.648;23.332;2023-08-24T11:32:57;17.13;;;11.48;;
65831;SDS011;52593;42.648;23.332;2023-08-24T11:35:23;17.30;;;10.77;;
65831;SDS011;52593;42.648;23.332;2023-08-24T11:37:55;16.95;;;10.80;;
65831;SDS011;52593;42.648;23.332;2023-08-24T11:40:22;17.65;;;10.98;;
65831;SDS011;52593;42.648;23.332;2023-08-24T11:42:54;17.60;;;11.70;;
65831;SDS011;52593;42.648;23.332;2023-08-24T11:45:22;17.73;;;11.23;;
65831;SDS011;52593;42.648;23.332;2023-08-24T11:47:52;18.17;;;10.85;;
65831;SDS011;52593;42.648;23.332;2023-08-24T11:50:18;14.13;;;10.07;;
65831;SDS011;52593;42.648;23.332;2023-08-24T11:52:44;14.87;;;10.20;;
65831;SDS011;52593;42.648;23.332;2023-08-24T11:55:10;20.05;;;10.68;;
65831;SDS011;52593;42.648;23.332;2023-08-24T11:57:36;19.60;;;10.35;;
65831;SDS011;52593;42.648;23.332;2023-08-24T12:00:02;17.40;;;10.37;;
65831;SDS011;52593;42.648;23.332;2023-08-24T12:02:29;16.92;;;10.15;;
65831;SDS011;52593;42.648;23.332;2023-08-24T12:04:55;18.70;;;10.05;;
65831;SDS011;52593;42.648;23.332;2023-08-24T12:07:21;17.07;;;10.50;;
65831;SDS011;52593;42.648;23.332;2023-08-24T12:09:46;19.38;;;10.30;;
65831;SDS011;52593;42.648;23.332;2023-08-24T12:12:13;16.13;;;10.43;;
65831;SDS011;52593;42.648;23.332;2023-08-24T12:14:42;17.92;;;10.75;;
65831;SDS011;52593;42.648;23.332;2023-08-24T12:17:11;14.50;;;9.45;;
65831;SDS011;52593;42.648;23.332;2023-08-24T12:19:45;16.73;;;10.10;;
65831;SDS011;52593;42.648;23.332;2023-08-24T12:22:20;13.97;;;9.37;;
65831;SDS011;52593;42.648;23.332;2023-08-24T12:24:46;16.80;;;9.73;;
65831;SDS011;52593;42.648;23.332;2023-08-24T12:27:19;17.65;;;9.88;;
65831;SDS011;52593;42.648;23.332;2023-08-24T12:29:46;14.10;;;9.73;;
65831;SDS011;52593;42.648;23.332;2023-08-24T12:32:12;15.87;;;10.10;;
65831;SDS011;52593;42.648;23.332;2023-08-24T12:34:37;14.07;;;9.82;;
65831;SDS011;52593;42.648;23.332;2023-08-24T12:37:03;17.13;;;10.30;;
65831;SDS011;52593;42.648;23.332;2023-08-24T12:39:32;18.65;;;10.45;;
65831;SDS011;52593;42.648;23.332;2023-08-24T12:42:00;16.55;;;9.63;;
65831;SDS011;52593;42.648;23.332;2023-08-24T12:44:25;16.67;;;9.80;;
65831;SDS011;52593;42.648;23.332;2023-08-24T12:46:51;15.03;;;9.13;;
65831;SDS011;52593;42.648;23.332;2023-08-24T12:49:17;18.60;;;11.70;;
65831;SDS011;52593;42.648;23.332;2023-08-24T12:51:42;15.83;;;9.67;;
65831;SDS011;52593;42.648;23.332;2023-08-24T12:54:07;16.57;;;9.83;;
65831;SDS011;52593;42.648;23.332;2023-08-24T12:56:33;15.52;;;10.57;;
65831;SDS011;52593;42.648;23.332;2023-08-24T12:58:58;15.90;;;10.17;;
65831;SDS011;52593;42.648;23.332;2023-08-24T13:01:23;17.63;;;9.90;;
65831;SDS011;52593;42.648;23.332;2023-08-24T13:03:49;16.07;;;10.07;;
65831;SDS011;52593;42.648;23.332;2023-08-24T13:06:14;15.50;;;10.68;;
65831;SDS011;52593;42.648;23.332;2023-08-24T13:08:40;15.77;;;10.37;;
65831;SDS011;52593;42.648;23.332;2023-08-24T13:11:05;16.70;;;10.60;;
65831;SDS011;52593;42.648;23.332;2023-08-24T13:13:31;17.23;;;10.07;;
65831;SDS011;52593;42.648;23.332;2023-08-24T13:15:56;13.77;;;10.02;;
65831;SDS011;52593;42.648;23.332;2023-08-24T13:18:21;20.70;;;14.13;;
65831;SDS011;52593;42.648;23.332;2023-08-24T13:20:47;17.30;;;11.30;;
65831;SDS011;52593;42.648;23.332;2023-08-24T13:23:12;14.03;;;10.23;;
65831;SDS011;52593;42.648;23.332;2023-08-24T13:25:38;17.38;;;10.93;;
65831;SDS011;52593;42.648;23.332;2023-08-24T13:28:03;17.13;;;11.60;;
65831;SDS011;52593;42.648;23.332;2023-08-24T13:30:29;18.33;;;10.97;;
65831;SDS011;52593;42.648;23.332;2023-08-24T13:32:54;16.70;;;10.93;;
65831;SDS011;52593;42.648;23.332;2023-08-24T13:35:19;16.67;;;11.03;;
65831;SDS011;52593;42.648;23.332;2023-08-24T13:37:45;16.60;;;10.37;;
65831;SDS011;52593;42.648;23.332;2023-08-24T13:40:11;15.93;;;11.23;;
65831;SDS011;52593;42.648;23.332;2023-08-24T13:42:37;16.37;;;11.43;;
65831;SDS011;52593;42.648;23.332;2023-08-24T13:45:02;17.80;;;10.52;;
65831;SDS011;52593;42.648;23.332;2023-08-24T13:47:28;19.35;;;11.35;;
65831;SDS011;52593;42.648;23.332;2023-08-24T13:49:54;16.97;;;10.57;;
65831;SDS011;52593;42.648;23.332;2023-08-24T13:52:19;18.47;;;11.33;;
65831;SDS011;52593;42.648;23.332;2023-08-24T13:54:45;20.00;;;11.40;;
65831;SDS011;52593;42.648;23.332;2023-08-24T13:57:10;15.23;;;11.02;;
65831;SDS011;52593;42.648;23.332;2023-08-24T13:59:36;16.00;;;11.40;;
65831;SDS011;52593;42.648;23.332;2023-08-24T14:02:01;16.47;;;11.33;;
65831;SDS011;52593;42.648;23.332;2023-08-24T14:04:27;15.68;;;11.20;;
65831;SDS011;52593;42.648;23.332;2023-08-24T14:06:52;17.10;;;11.40;;
65831;SDS011;52593;42.648;23.332;2023-08-24T14:09:18;17.15;;;11.35;;
65831;SDS011;52593;42.648;23.332;2023-08-24T14:11:43;15.40;;;10.80;;
65831;SDS011;52593;42.648;23.332;2023-08-24T14:14:09;17.70;;;10.83;;
65831;SDS011;52593;42.648;23.332;2023-08-24T14:16:35;17.92;;;10.55;;
65831;SDS011;52593;42.648;23.332;2023-08-24T14:19:00;17.13;;;11.33;;
65831;SDS011;52593;42.648;23.332;2023-08-24T14:21:25;23.10;;;15.13;;
65831;SDS011;52593;42.648;23.332;2023-08-24T14:23:51;19.90;;;11.90;;